NORTHEAST SUFFOLK  -  Winter Weather Advisory Winter Weather Advisory        NORTHERN NASSAU  -  Winter Weather Advisory Winter Weather Advisory        NORTHWEST SUFFOLK  -  Winter Weather Advisory Winter Weather Advisory        SOUTHEAST SUFFOLK  -  Winter Weather Advisory Winter Weather Advisory        SOUTHERN NASSAU  -  Winter Weather Advisory Winter Weather Advisory        SOUTHWEST SUFFOLK  -  Winter Weather Advisory Winter Weather Advisory      

Active alerts

Northern Nassau
  Details for Northern Nassau Winter Weather Advisory
Southern Nassau
  Details for Southern Nassau Winter Weather Advisory
Northwest Suffolk
  Details for Northwest Suffolk Winter Weather Advisory
Southwest Suffolk
  Details for Southwest Suffolk Winter Weather Advisory
Northeast Suffolk
  Details for Northeast Suffolk Winter Weather Advisory
Southeast Suffolk
  Details for Southeast Suffolk Winter Weather Advisory


WXM80 ListenWXM80 Stop

You find our weather info also at:

UK Metoffice

WeatherCloud

Weather Underground

Northeastern Weather Network

AWEKAS

Citizen Weather Observer Program (CWOP)

HAMweather, WeatherForYou, PWS Weather


Weather Underground History page Text

Daily Summary for November 3, 2017 Units:  English    Metric   Both
« Previous Day
Next Day »
Daily Weekly Monthly Yearly Custom
  High: Low: Average:
Temperature: 76.4 °F 53.0 °F 65.8 °F
Dew Point: 66.6 °F 40.3 °F 59.8 °F
Humidity: 98 % 60 % 82 %
Wind Speed: 12.3 mph 0.0 mph 2.9 mph
Wind Gust: 20.7 mph - -
Wind:- - SSW
Pressure: 30.21 in 29.94 in -
Precipitation: 0.26 in    
Historical Graphs
 
 
Tabular Data for November 3, 2017
Time Temperature Dew Point Pressure Wind Wind Speed Wind Gust Humidity Rainfall Rate (Hourly)
00:01 62.2 °F 60.8 °F 30.20 in Calm   1.2 mph 95 % 0.02 in
00:06 62.2 °F 60.8 °F 30.20 in Calm   2.3 mph 95 % 0.02 in
00:11 62.2 °F 60.8 °F 30.20 in SW 0.2 mph 1.2 mph 95 % 0.01 in
00:16 62.2 °F 60.8 °F 30.20 in SSW 0.3 mph 3.5 mph 95 % 0.01 in
00:21 62.2 °F 60.8 °F 30.19 in SSW 0.2 mph 2.3 mph 95 % 0.01 in
00:26 62.3 °F 61.1 °F 30.19 in SW 0.5 mph 2.3 mph 96 % 0.02 in
00:31 62.3 °F 61.1 °F 30.20 in Calm   1.2 mph 96 % 0.02 in
00:36 62.3 °F 61.1 °F 30.19 in Calm   1.2 mph 96 % 0.02 in
00:42 62.4 °F 61.2 °F 30.19 in Calm   1.2 mph 96 % 0.02 in
00:46 62.3 °F 61.1 °F 30.18 in Calm   1.2 mph 96 % 0.02 in
00:51 62.3 °F 61.1 °F 30.19 in Calm   1.2 mph 96 % 0.01 in
00:57 62.3 °F 61.1 °F 30.18 in SSE 0.2 mph   96 % 0.01 in
01:02 62.2 °F 60.8 °F 30.18 in Calm     95 % 0.02 in
01:07 62.1 °F 60.7 °F 30.18 in Calm     95 % 0.02 in
01:12 62.1 °F 60.7 °F 30.18 in SSE 0.1 mph 1.2 mph 95 % 0.02 in
01:17 62.0 °F 60.6 °F 30.18 in SSW 0.1 mph 2.3 mph 95 % 0.02 in
01:22 62.0 °F 60.6 °F 30.17 in Calm     95 % 0.02 in
01:27 61.9 °F 60.5 °F 30.17 in South 0.1 mph 1.2 mph 95 % 0.01 in
01:32 61.9 °F 60.7 °F 30.17 in SSW 0.6 mph 3.5 mph 96 % 0.01 in
01:37 61.9 °F 60.7 °F 30.17 in SSW 0.2 mph 3.5 mph 96 % 0.01 in
01:42 62.0 °F 60.8 °F 30.17 in SSW 2.2 mph 3.5 mph 96 % 0.02 in
01:47 62.2 °F 61.0 °F 30.17 in SSW 2.0 mph 3.5 mph 96 % 0.02 in
01:52 62.2 °F 61.0 °F 30.16 in South 0.6 mph 2.3 mph 96 % 0.02 in
01:57 62.3 °F 61.1 °F 30.16 in SSW 0.2 mph 1.2 mph 96 % 0.02 in
02:02 62.3 °F 61.1 °F 30.16 in South 1.8 mph 3.5 mph 96 % 0.01 in
02:07 62.4 °F 61.2 °F 30.16 in SSW 1.2 mph 3.5 mph 96 % 0.01 in
02:12 62.5 °F 61.3 °F 30.16 in South 2.1 mph 4.6 mph 96 % 0.01 in
02:17 62.5 °F 61.3 °F 30.17 in SSW 1.6 mph 3.5 mph 96 % 0.02 in
02:22 62.6 °F 61.7 °F 30.16 in SSW 1.9 mph 4.0 mph 97 % 0.02 in
02:27 62.6 °F 61.4 °F 30.16 in WSW 0.5 mph 2.3 mph 96 % 0.02 in
02:32 62.6 °F 61.7 °F 30.16 in South 1.1 mph 3.5 mph 97 % 0.02 in
02:37 62.6 °F 61.4 °F 30.16 in South 1.7 mph 4.0 mph 96 % 0.02 in
02:42 62.7 °F 61.5 °F 30.16 in SSW 2.0 mph 3.5 mph 96 % 0.01 in
02:47 62.7 °F 61.5 °F 30.15 in WSW 0.9 mph 3.5 mph 96 % 0.01 in
02:52 62.7 °F 61.5 °F 30.15 in WSW 1.9 mph 4.0 mph 96 % 0.01 in
02:57 62.7 °F 61.5 °F 30.15 in SW 1.8 mph 4.6 mph 96 % 0.02 in
03:02 62.7 °F 61.5 °F 30.15 in SSW 1.8 mph 4.6 mph 96 % 0.02 in
03:07 62.7 °F 61.5 °F 30.15 in SSW 2.8 mph 3.5 mph 96 % 0.02 in
03:12 62.7 °F 61.5 °F 30.14 in WSW 2.1 mph 3.5 mph 96 % 0.02 in
03:17 62.7 °F 61.5 °F 30.14 in SW 1.0 mph 3.5 mph 96 % 0.01 in
03:22 62.7 °F 61.5 °F 30.14 in SW 1.5 mph 3.5 mph 96 % 0.01 in
03:27 62.7 °F 61.5 °F 30.13 in SSW 1.4 mph 2.3 mph 96 % 0.01 in
03:32 62.7 °F 61.5 °F 30.13 in WSW 1.3 mph 3.5 mph 96 % 0.01 in
03:37 62.7 °F 61.5 °F 30.13 in South 1.1 mph 4.6 mph 96 % 0.01 in
03:42 62.7 °F 61.5 °F 30.13 in SSW 0.3 mph 3.5 mph 96 % 0.02 in
03:47 62.7 °F 61.5 °F 30.12 in SSW 1.6 mph 3.5 mph 96 % 0.02 in
03:52 62.7 °F 61.5 °F 30.12 in SW 0.7 mph 3.5 mph 96 % 0.02 in
03:57 62.7 °F 61.5 °F 30.11 in South 2.0 mph 3.5 mph 96 % 0.01 in
04:02 62.7 °F 61.8 °F 30.11 in SE 1.2 mph 3.5 mph 97 % 0.01 in
04:08 62.6 °F 61.4 °F 30.12 in SSW 0.6 mph 3.5 mph 96 % 0.01 in
04:13 62.6 °F 61.4 °F 30.11 in SSW 2.0 mph 3.5 mph 96 % 0.01 in
04:18 62.6 °F 61.4 °F 30.11 in SSW 2.7 mph 4.0 mph 96 % 0.02 in
04:23 62.6 °F 61.4 °F 30.13 in SSW 0.7 mph 4.0 mph 96 % 0.02 in
04:28 62.5 °F 61.6 °F 30.10 in SSW 0.6 mph 2.3 mph 97 % 0.02 in
04:34 62.5 °F 61.6 °F 30.09 in SSW 2.3 mph 3.5 mph 97 % 0.02 in
04:39 62.5 °F 61.3 °F 30.13 in SSW 1.0 mph 2.3 mph 96 % 0.01 in
04:44 62.4 °F 61.2 °F 30.13 in WSW 2.1 mph 3.5 mph 96 % 0.01 in
04:49 62.4 °F 61.2 °F 30.13 in WSW 0.2 mph 4.6 mph 96 % 0.01 in
04:54 62.3 °F 61.1 °F 30.13 in SW 1.7 mph 6.9 mph 96 % 0.02 in
04:59 62.3 °F 61.1 °F 30.13 in Calm   1.2 mph 96 % 0.02 in
05:04 62.2 °F 61.0 °F 30.12 in WSW 1.9 mph 2.3 mph 96 % 0.02 in
05:09 62.2 °F 61.0 °F 30.12 in SW 0.7 mph 2.3 mph 96 % 0.02 in
05:14 62.2 °F 61.0 °F 30.12 in SSW 0.6 mph 4.6 mph 96 % 0.02 in
05:19 62.1 °F 60.9 °F 30.12 in SSW 1.2 mph 2.3 mph 96 % 0.01 in
05:24 62.1 °F 60.9 °F 30.13 in WSW 0.7 mph 3.5 mph 96 % 0.01 in
05:28 62.1 °F 60.9 °F 30.12 in SSW 1.0 mph 4.6 mph 96 % 0.02 in
05:34 62.0 °F 60.8 °F 30.13 in SW 0.5 mph 3.5 mph 96 % 0.02 in
05:44 62.0 °F 60.8 °F 30.13 in WNW 0.4 mph 3.5 mph 96 % 0.02 in
05:49 62.0 °F 61.1 °F 30.14 in SW 1.8 mph 3.5 mph 97 % 0.02 in
05:54 62.0 °F 61.1 °F 30.13 in WSW 1.7 mph 3.5 mph 97 % 0.01 in
05:59 62.0 °F 61.1 °F 30.13 in WSW 2.4 mph 4.6 mph 97 % 0.01 in
06:04 62.1 °F 61.2 °F 30.13 in West 0.1 mph 1.2 mph 97 % 0.02 in
06:09 62.1 °F 61.2 °F 30.13 in WSW 1.4 mph 3.0 mph 97 % 0.02 in
06:14 62.1 °F 61.2 °F 30.13 in Calm     97 % 0.02 in
06:19 62.1 °F 61.2 °F 30.10 in WSW 0.3 mph 2.0 mph 97 % 0.02 in
06:24 62.2 °F 61.3 °F 30.09 in SW 2.0 mph 4.6 mph 97 % 0.02 in
06:29 62.2 °F 61.3 °F 30.09 in SW 1.5 mph 4.6 mph 97 % 0.01 in
06:34 62.2 °F 61.3 °F 30.09 in Calm   1.2 mph 97 % 0.01 in
06:39 62.1 °F 61.2 °F 30.09 in Calm   1.2 mph 97 % 0.01 in
06:44 62.1 °F 61.2 °F 30.08 in Calm   2.3 mph 97 % 0.02 in
06:49 62.0 °F 61.1 °F 30.07 in SW 0.2 mph 1.2 mph 97 % 0.02 in
06:54 62.0 °F 61.1 °F 30.07 in SSE 0.4 mph 2.3 mph 97 % 0.02 in
06:59 61.9 °F 61.0 °F 30.07 in SSW 1.0 mph 2.3 mph 97 % 0.02 in
07:04 61.9 °F 61.0 °F 30.07 in SE 0.5 mph 2.0 mph 97 % 0.01 in
07:09 61.8 °F 60.9 °F 30.06 in SE 0.3 mph 2.3 mph 97 % 0.01 in
07:14 61.8 °F 60.9 °F 30.06 in SSW 0.1 mph 1.2 mph 97 % 0.01 in
07:19 61.8 °F 60.9 °F 30.06 in Calm     97 % 0.02 in
07:24 61.7 °F 60.8 °F 30.05 in SSW 0.2 mph 1.2 mph 97 % 0.02 in
07:29 61.7 °F 60.8 °F 30.06 in Calm     97 % 0.02 in
07:34 61.7 °F 60.8 °F 30.06 in West 0.8 mph 2.3 mph 97 % 0.02 in
07:39 61.6 °F 60.7 °F 30.05 in SW 0.9 mph 2.0 mph 97 % 0.02 in
07:45 61.6 °F 60.7 °F 30.05 in Calm   1.2 mph 97 % 0.01 in
07:50 61.6 °F 60.7 °F 30.05 in WSW 0.3 mph 1.2 mph 97 % 0.01 in
07:54 61.6 °F 60.7 °F 30.05 in Calm     97 % 0.01 in
07:59 61.6 °F 60.7 °F 30.04 in SSW 0.4 mph 2.3 mph 97 % 0.02 in
08:05 61.6 °F 60.7 °F 30.05 in SW 0.3 mph 2.0 mph 97 % 0.02 in
08:10 61.6 °F 60.7 °F 30.05 in Calm     97 % 0.02 in
08:15 61.7 °F 60.8 °F 30.10 in SSW 0.1 mph 3.0 mph 97 % 0.02 in
08:20 61.7 °F 60.8 °F 30.05 in Calm   1.2 mph 97 % 0.01 in
08:25 61.8 °F 60.9 °F 30.05 in Calm   1.2 mph 97 % 0.01 in
08:30 61.8 °F 60.9 °F 30.11 in Calm     97 % 0.02 in
08:35 61.9 °F 61.0 °F 30.11 in SW 0.4 mph 6.9 mph 97 % 0.02 in
08:40 62.0 °F 61.1 °F 30.10 in Calm   4.6 mph 97 % 0.02 in
08:45 62.0 °F 61.1 °F 30.11 in Calm     97 % 0.02 in
08:50 62.1 °F 61.2 °F 30.06 in SW 0.4 mph 2.0 mph 97 % 0.02 in
08:55 62.2 °F 61.3 °F 30.10 in SSW 1.1 mph 3.5 mph 97 % 0.02 in
08:57 62.2 °F 61.3 °F 30.09 in South 1.4 mph 3.5 mph 97 % 0.01 in
09:02 62.3 °F 61.4 °F 30.05 in SW 1.6 mph 3.0 mph 97 % 0.01 in
09:07 62.4 °F 61.5 °F 30.05 in WSW 0.4 mph 1.2 mph 97 % 0.02 in
09:12 62.5 °F 61.6 °F 30.10 in Calm   2.3 mph 97 % 0.02 in
09:17 62.6 °F 61.7 °F 30.09 in SW 0.3 mph 3.5 mph 97 % 0.02 in
09:22 62.8 °F 62.2 °F 30.09 in WSW 1.5 mph 3.5 mph 98 % 0.02 in
09:27 63.0 °F 62.1 °F 30.09 in SSE 3.9 mph 4.6 mph 97 % 0.02 in
09:32 63.4 °F 62.8 °F 30.09 in West 1.0 mph 3.5 mph 98 % 0.01 in
09:37 63.8 °F 63.2 °F 30.09 in WSW 1.1 mph 3.5 mph 98 % 0.01 in
09:42 64.4 °F 63.8 °F 30.04 in SW 1.8 mph 5.0 mph 98 % 0.01 in
09:47 64.9 °F 64.3 °F 30.06 in SW 0.2 mph 3.5 mph 98 % 0.01 in
09:52 65.4 °F 64.5 °F 30.05 in SSW 3.4 mph 9.2 mph 97 % 0.01 in
09:58 65.7 °F 64.5 °F 30.05 in WSW 2.4 mph 5.8 mph 96 % 0.02 in
10:03 66.0 °F 64.5 °F 30.04 in WSW 0.7 mph 2.3 mph 95 % 0.02 in
10:08 66.4 °F 64.9 °F 30.08 in SW 5.3 mph 8.1 mph 95 % 0.01 in
10:13 66.7 °F 64.6 °F 30.08 in SSW 0.6 mph 2.3 mph 93 % 0.01 in
10:18 67.1 °F 64.7 °F 30.07 in SSW 3.8 mph 5.8 mph 92 % 0.01 in
10:23 67.7 °F 65.3 °F 30.07 in West 0.4 mph 3.5 mph 92 % 0.01 in
10:28 68.5 °F 65.4 °F 30.07 in SE 0.3 mph 4.6 mph 90 % 0.01 in
10:33 69.2 °F 65.8 °F 30.08 in East 1.0 mph 2.3 mph 89 % 0.01 in
10:38 69.9 °F 66.2 °F 30.04 in Calm   1.2 mph 88 % 0.02 in
10:43 70.4 °F 65.7 °F 30.04 in SW 3.2 mph 5.0 mph 85 % 0.02 in
10:48 71.0 °F 65.9 °F 30.08 in SW 1.5 mph 3.5 mph 84 % 0.02 in
10:53 71.5 °F 66.4 °F 30.08 in WSW 2.7 mph 5.8 mph 84 % 0.02 in
10:58 72.1 °F 65.6 °F 30.08 in West 3.8 mph 5.8 mph 80 % 0.01 in
11:03 72.5 °F 65.6 °F 30.08 in SW 3.5 mph 4.6 mph 79 % 0.01 in
11:08 72.9 °F 66.0 °F 30.08 in SW 0.2 mph 2.3 mph 79 % 0.01 in
11:13 73.5 °F 66.6 °F 30.08 in SW 2.1 mph 3.0 mph 79 % 0.02 in
11:19 73.9 °F 65.5 °F 30.07 in South 5.1 mph 5.1 mph 75 % 0.02 in
11:24 74.3 °F 65.9 °F 30.07 in Calm   3.5 mph 75 % 0.02 in
11:29 74.6 °F 65.8 °F 30.04 in South 2.5 mph 5.8 mph 74 % 0.02 in
11:32 74.7 °F 65.5 °F 30.03 in WSW 3.6 mph 5.8 mph 73 % 0.02 in
11:37 74.7 °F 65.9 °F 30.02 in SW 1.1 mph 3.5 mph 74 % 0.01 in
11:42 74.7 °F 65.5 °F 30.02 in SSW 1.1 mph 4.0 mph 73 % 0.01 in
11:48 74.7 °F 65.1 °F 30.02 in SSW 4.6 mph 5.0 mph 72 % 0.02 in
11:53 74.6 °F 64.6 °F 30.02 in SW 1.9 mph 8.1 mph 71 % 0.02 in
11:58 74.7 °F 65.1 °F 30.01 in SSW 1.7 mph 4.6 mph 72 % 0.02 in
12:03 74.7 °F 64.7 °F 30.01 in WSW 3.9 mph 5.8 mph 71 % 0.02 in
12:08 74.8 °F 64.4 °F 30.00 in SSW 3.5 mph 8.1 mph 70 % 0.02 in
12:13 74.7 °F 63.9 °F 30.00 in SW 6.4 mph 11.5 mph 69 % 0.01 in
12:18 74.6 °F 64.2 °F 29.99 in SW 3.5 mph 6.0 mph 70 % 0.02 in
12:20 74.6 °F 64.2 °F 30.00 in South 5.0 mph 6.9 mph 70 % 0.02 in
12:25 74.4 °F 63.6 °F 30.00 in SW 4.0 mph 9.2 mph 69 % 0.02 in
12:30 74.4 °F 64.0 °F 29.99 in SW 4.4 mph 6.9 mph 70 % 0.02 in
12:35 74.3 °F 63.9 °F 29.99 in SW 4.0 mph 8.1 mph 70 % 0.02 in
12:40 74.1 °F 62.9 °F 29.99 in WSW 7.0 mph 17.3 mph 68 % 0.02 in
12:45 73.9 °F 62.2 °F 29.99 in SW 8.6 mph 13.8 mph 67 % 0.01 in
12:50 73.7 °F 62.5 °F 29.98 in WSW 7.7 mph 11.5 mph 68 % 0.01 in
12:55 73.7 °F 62.5 °F 29.98 in SSW 2.6 mph 5.0 mph 68 % 0.01 in
13:00 73.7 °F 62.5 °F 29.97 in South 4.7 mph 11.0 mph 68 % 0.02 in
13:05 73.7 °F 62.1 °F 29.97 in SSE 4.9 mph 9.2 mph 67 % 0.02 in
13:10 73.7 °F 62.9 °F 29.97 in SSW 2.1 mph 5.0 mph 69 % 0.02 in
13:15 73.7 °F 62.5 °F 29.97 in WSW 4.9 mph 9.2 mph 68 % 0.02 in
13:20 73.6 °F 62.0 °F 29.97 in SSW 6.4 mph 10.4 mph 67 % 0.01 in
13:25 73.6 °F 62.4 °F 29.97 in West 2.3 mph 5.8 mph 68 % 0.01 in
13:30 73.7 °F 62.9 °F 29.96 in SSW 2.0 mph 5.0 mph 69 % 0.01 in
13:35 73.7 °F 62.5 °F 29.96 in SSW 9.2 mph 14.0 mph 68 % 0.02 in
13:40 73.8 °F 62.6 °F 29.96 in SW 6.1 mph 9.2 mph 68 % 0.02 in
13:41 73.8 °F 62.2 °F 29.96 in WSW 5.2 mph 8.1 mph 67 % 0.02 in
13:47 73.9 °F 62.7 °F 29.96 in SSW 4.0 mph 11.5 mph 68 % 0.02 in
13:52 74.1 °F 63.3 °F 29.96 in SW 5.4 mph 11.5 mph 69 % 0.02 in
13:57 74.3 °F 63.1 °F 29.95 in SSW 6.1 mph 6.9 mph 68 % 0.02 in
14:02 74.6 °F 62.5 °F 29.95 in SSW 3.0 mph 8.1 mph 66 % 0.01 in
14:07 74.8 °F 63.1 °F 29.95 in WSW 3.9 mph 6.9 mph 67 % 0.02 in
14:12 75.0 °F 63.3 °F 29.95 in WSW 6.8 mph 9.2 mph 67 % 0.02 in
14:17 75.3 °F 63.6 °F 29.97 in SW 5.5 mph 8.1 mph 67 % 0.02 in
14:22 75.5 °F 63.8 °F 29.97 in WSW 3.7 mph 5.8 mph 67 % 0.02 in
14:27 75.6 °F 63.4 °F 29.97 in SW 4.0 mph 6.0 mph 66 % 0.02 in
14:32 75.8 °F 63.6 °F 29.97 in SW 5.8 mph 9.0 mph 66 % 0.02 in
14:37 75.9 °F 64.2 °F 29.98 in SSW 3.2 mph 6.0 mph 67 % 0.01 in
14:42 76.0 °F 63.8 °F 29.97 in SW 2.5 mph 6.0 mph 66 % 0.01 in
14:47 76.1 °F 63.9 °F 29.97 in SW 2.2 mph 5.8 mph 66 % 0.01 in
14:52 76.2 °F 64.0 °F 29.97 in SSW 2.4 mph 5.8 mph 66 % 0.02 in
14:57 76.3 °F 64.5 °F 29.97 in SSW 3.0 mph 4.6 mph 67 % 0.02 in
15:03 76.4 °F 63.8 °F 29.95 in SW 2.3 mph 2.3 mph 65 % 0.02 in
15:08 76.4 °F 63.8 °F 29.95 in WSW 2.3 mph 5.8 mph 65 % 0.01 in
15:13 76.3 °F 64.1 °F 29.95 in SSW 1.8 mph 6.0 mph 66 % 0.01 in
15:18 76.0 °F 63.4 °F 29.95 in WSW 2.8 mph 9.2 mph 65 % 0.01 in
15:23 75.7 °F 63.5 °F 29.95 in SW 2.5 mph 4.6 mph 66 % 0.01 in
15:28 75.5 °F 62.9 °F 29.95 in WSW 1.9 mph 5.8 mph 65 % 0.01 in
15:33 75.3 °F 63.2 °F 29.95 in SW 3.0 mph 5.0 mph 66 % 0.01 in
15:38 75.1 °F 63.4 °F 29.95 in SW 0.4 mph 3.5 mph 67 % 0.01 in
15:43 74.9 °F 63.2 °F 29.95 in SSW 3.0 mph 5.0 mph 67 % 0.01 in
15:48 74.6 °F 62.9 °F 29.95 in WSW 2.1 mph 6.0 mph 67 % 0.01 in
15:53 74.4 °F 63.1 °F 29.95 in WSW 2.4 mph 4.6 mph 68 % 0.00 in
15:58 74.2 °F 63.0 °F 29.95 in SSW 2.5 mph 4.6 mph 68 % 0.00 in
16:03 74.0 °F 62.8 °F 29.94 in SW 0.8 mph 2.3 mph 68 % 0.00 in
16:08 73.9 °F 62.7 °F 29.95 in WSW 2.9 mph 3.5 mph 68 % 0.00 in
16:13 73.8 °F 63.0 °F 29.94 in WSW 1.3 mph 3.5 mph 69 % 0.00 in
16:18 73.6 °F 62.4 °F 29.95 in WSW 0.5 mph 3.5 mph 68 % 0.00 in
16:23 73.5 °F 62.7 °F 29.95 in SW 0.9 mph 2.3 mph 69 % 0.00 in
16:29 73.4 °F 62.6 °F 29.96 in West 2.7 mph 4.6 mph 69 % 0.00 in
16:34 73.3 °F 62.9 °F 29.95 in WSW 1.4 mph 4.0 mph 70 % 0.00 in
16:39 73.1 °F 62.7 °F 29.95 in West 1.3 mph 3.5 mph 70 % 0.00 in
16:44 73.0 °F 62.6 °F 29.96 in WSW 1.7 mph 6.9 mph 70 % 0.01 in
16:49 72.8 °F 62.4 °F 29.97 in WSW 1.7 mph 6.9 mph 70 % 0.01 in
16:54 72.6 °F 62.7 °F 29.97 in WSW 1.7 mph 3.5 mph 71 % 0.01 in
16:59 72.5 °F 62.6 °F 29.97 in WNW 3.5 mph 5.8 mph 71 % 0.01 in
17:04 72.3 °F 62.4 °F 29.98 in WNW 0.2 mph 2.0 mph 71 % 0.01 in
17:09 72.1 °F 62.2 °F 29.97 in West 0.4 mph 2.3 mph 71 % 0.01 in
17:14 72.0 °F 62.5 °F 29.98 in WSW 0.3 mph 1.2 mph 72 % 0.01 in
17:19 71.8 °F 62.3 °F 29.97 in West 1.3 mph 3.5 mph 72 % 0.01 in
17:24 71.7 °F 62.6 °F 30.02 in WNW 0.1 mph 3.5 mph 73 % 0.01 in
17:29 71.5 °F 62.4 °F 30.02 in Calm   1.0 mph 73 % 0.01 in
17:34 71.4 °F 62.3 °F 29.99 in Calm   2.3 mph 73 % 0.01 in
17:40 71.3 °F 62.6 °F 29.99 in West 0.5 mph 2.3 mph 74 % 0.01 in
17:45 71.2 °F 62.1 °F 29.99 in SW 1.0 mph 4.0 mph 73 % 0.00 in
17:50 71.0 °F 61.9 °F 29.99 in WSW 3.0 mph 4.0 mph 73 % 0.00 in
17:55 70.9 °F 62.2 °F 29.99 in NW 3.9 mph 6.9 mph 74 % 0.00 in
18:00 70.8 °F 62.1 °F 30.00 in WSW 2.7 mph 5.8 mph 74 % 0.00 in
18:05 70.7 °F 62.4 °F 30.00 in WNW 0.6 mph 3.5 mph 75 % 0.00 in
18:10 70.6 °F 62.3 °F 30.00 in WNW 2.2 mph 5.8 mph 75 % 0.00 in
18:15 70.4 °F 62.1 °F 30.01 in WNW 3.0 mph 6.0 mph 75 % 0.00 in
18:20 70.1 °F 61.8 °F 30.01 in WNW 2.3 mph 3.5 mph 75 % 0.00 in
18:25 69.9 °F 62.0 °F 30.01 in NNW 1.5 mph 8.1 mph 76 % 0.00 in
18:30 69.8 °F 61.9 °F 30.02 in WNW 2.3 mph 4.6 mph 76 % 0.00 in
18:35 69.6 °F 61.7 °F 30.01 in NW 2.6 mph 5.8 mph 76 % 0.00 in
18:40 69.4 °F 61.5 °F 30.01 in WNW 2.5 mph 4.6 mph 76 % 0.00 in
18:45 69.3 °F 61.8 °F 30.02 in WSW 1.6 mph 5.0 mph 77 % 0.00 in
18:50 69.0 °F 61.5 °F 30.02 in WNW 3.3 mph 5.0 mph 77 % 0.00 in
18:55 68.9 °F 61.8 °F 30.02 in NNE 3.6 mph 4.6 mph 78 % 0.00 in
19:00 68.8 °F 61.7 °F 30.03 in WNW 3.2 mph 6.9 mph 78 % 0.00 in
19:05 68.6 °F 61.1 °F 30.02 in North 1.5 mph 4.6 mph 77 % 0.00 in
19:10 68.3 °F 60.4 °F 30.03 in NW 2.5 mph 5.0 mph 76 % 0.00 in
19:15 68.2 °F 60.3 °F 30.03 in WNW 5.0 mph 10.4 mph 76 % 0.00 in
19:20 68.1 °F 60.2 °F 30.03 in WNW 7.5 mph 11.0 mph 76 % 0.00 in
19:25 68.0 °F 60.2 °F 30.03 in North 4.0 mph 6.9 mph 76 % 0.00 in
19:31 67.9 °F 60.0 °F 30.04 in NW 3.0 mph 11.0 mph 76 % 0.00 in
19:36 67.7 °F 60.2 °F 30.05 in NNW 5.0 mph 10.0 mph 77 % 0.00 in
19:41 67.3 °F 59.8 °F 30.05 in NNE 2.0 mph 8.0 mph 77 % 0.00 in
19:46 66.9 °F 59.5 °F 30.05 in NNE 3.0 mph 9.0 mph 77 % 0.00 in
19:51 66.4 °F 58.6 °F 30.06 in North 4.5 mph 12.7 mph 76 % 0.00 in
19:55 66.1 °F 58.3 °F 30.07 in NW 3.7 mph 8.1 mph 76 % 0.00 in
20:00 65.8 °F 58.4 °F 30.07 in North 4.7 mph 9.2 mph 77 % 0.00 in
20:06 65.6 °F 58.2 °F 30.07 in North 3.0 mph 12.0 mph 77 % 0.00 in
20:11 65.4 °F 57.6 °F 30.07 in North 6.0 mph 10.0 mph 76 % 0.00 in
20:16 65.1 °F 57.3 °F 30.07 in NNE 6.0 mph 12.0 mph 76 % 0.00 in
20:20 64.8 °F 57.4 °F 30.08 in NNW 6.2 mph 9.2 mph 77 % 0.00 in
20:26 64.4 °F 56.7 °F 30.08 in North 9.2 mph 10.0 mph 76 % 0.00 in
20:31 64.0 °F 55.9 °F 30.11 in NNE 9.0 mph 16.0 mph 75 % 0.00 in
20:36 63.4 °F 55.0 °F 30.11 in NNE 9.0 mph 16.0 mph 74 % 0.00 in
20:41 62.8 °F 54.4 °F 30.12 in North 9.0 mph 17.0 mph 74 % 0.00 in
20:46 62.3 °F 53.9 °F 30.13 in ENE 6.6 mph 11.5 mph 74 % 0.00 in
20:51 61.9 °F 53.5 °F 30.13 in NNE 7.3 mph 13.8 mph 74 % 0.00 in
20:56 61.4 °F 52.7 °F 30.13 in North 6.9 mph 16.1 mph 73 % 0.00 in
21:01 61.0 °F 52.7 °F 30.13 in NNW 9.0 mph 12.7 mph 74 % 0.00 in
21:06 60.6 °F 51.9 °F 30.14 in NNW 10.4 mph 17.3 mph 73 % 0.00 in
21:11 60.3 °F 51.2 °F 30.14 in North 7.3 mph 15.0 mph 72 % 0.00 in
21:16 60.0 °F 51.3 °F 30.14 in North 7.6 mph 16.0 mph 73 % 0.00 in
21:21 59.8 °F 50.4 °F 30.14 in NNE 8.1 mph 13.8 mph 71 % 0.00 in
21:26 59.4 °F 49.6 °F 30.15 in North 12.3 mph 17.3 mph 70 % 0.00 in
21:31 59.0 °F 49.2 °F 30.15 in North 11.1 mph 17.3 mph 70 % 0.00 in
21:36 58.6 °F 48.8 °F 30.16 in North 9.9 mph 17.3 mph 70 % 0.00 in
21:41 58.2 °F 48.5 °F 30.16 in North 11.0 mph 20.7 mph 70 % 0.01 in
21:46 58.0 °F 47.9 °F 30.17 in NW 5.8 mph 15.0 mph 69 % 0.01 in
21:51 57.7 °F 47.2 °F 30.17 in North 9.4 mph 11.5 mph 68 % 0.01 in
21:57 57.4 °F 48.1 °F 30.18 in NE 10.3 mph 12.7 mph 71 % 0.01 in
22:02 57.1 °F 47.4 °F 30.17 in NW 8.1 mph 13.8 mph 70 % 0.01 in
22:07 56.7 °F 46.6 °F 30.18 in North 9.8 mph 17.3 mph 69 % 0.01 in
22:12 56.4 °F 46.4 °F 30.18 in NE 8.6 mph 12.7 mph 69 % 0.01 in
22:17 56.2 °F 46.2 °F 30.17 in North 8.1 mph 14.0 mph 69 % 0.01 in
22:22 55.9 °F 45.9 °F 30.18 in NNE 8.6 mph 11.5 mph 69 % 0.01 in
22:27 55.7 °F 44.9 °F 30.17 in NNE 9.6 mph 14.0 mph 67 % 0.01 in
22:32 55.5 °F 45.1 °F 30.18 in North 9.1 mph 12.7 mph 68 % 0.01 in
22:37 55.3 °F 44.1 °F 30.18 in North 10.4 mph 17.3 mph 66 % 0.01 in
22:42 55.2 °F 44.4 °F 30.19 in NNE 6.6 mph 12.7 mph 67 % 0.00 in
22:47 55.0 °F 44.2 °F 30.19 in NNE 5.5 mph 11.0 mph 67 % 0.00 in
22:52 54.8 °F 42.9 °F 30.19 in North 6.9 mph 11.5 mph 64 % 0.00 in
22:57 54.7 °F 42.8 °F 30.19 in NNE 5.2 mph 9.2 mph 64 % 0.00 in
23:02 54.5 °F 41.7 °F 30.19 in NNW 5.4 mph 10.4 mph 62 % 0.00 in
23:07 54.3 °F 41.6 °F 30.19 in NNE 7.1 mph 10.4 mph 62 % 0.00 in
23:13 54.1 °F 40.5 °F 30.19 in North 7.6 mph 15.0 mph 60 % 0.00 in
23:21 53.9 °F 40.8 °F 30.20 in NNW 6.1 mph 17.3 mph 61 % 0.00 in
23:24 53.9 °F 41.2 °F 30.20 in North 5.0 mph 10.4 mph 62 % 0.00 in
23:28 53.7 °F 41.4 °F 29.96 in North 5.9 mph 10.4 mph 63 % 0.00 in
23:29 53.7 °F 41.4 °F 30.21 in ENE 5.3 mph 10.4 mph 63 % 0.00 in
23:31 53.7 °F 41.4 °F 30.21 in NNW 8.0 mph 12.7 mph 63 % 0.00 in
23:33 53.6 °F 41.3 °F 30.21 in NNW 8.6 mph 13.8 mph 63 % 0.00 in
23:38 53.4 °F 40.3 °F 30.21 in NNE 9.2 mph 15.0 mph 61 % 0.00 in
23:43 53.3 °F 41.0 °F 30.21 in NNE 7.8 mph 10.4 mph 63 % 0.00 in
23:48 53.2 °F 40.9 °F 30.21 in NNW 5.3 mph 11.5 mph 63 % 0.00 in
23:53 53.0 °F 40.3 °F 30.21 in North 9.0 mph 11.5 mph 62 % 0.00 in
Crab Meadow Weather
Compliments of Weather Underground - 3 mb

Script developed by  Jim McMurry - jmcmurry@mwt.net Adapted for the template by  Wim van der Kuil - Leuven-Template.eu

Weather Terms: Flood Warning - General or areal flooding of streets, low-lying areas, urban storm drains, creeks and small streams is occurring, imminent, or highly likely. Flood warnings are issued for flooding that occurs more than 6 hours after the excessive rainfall. These warnings are issued on a county by county basis by the local Weather Forecast Office in Upton and are generally in effect for 6 to 12 hours.